EUL weather

Caldwell Industrial Airport
Caldwell, Idaho, United States

Public forecast

Using degrees Fahrenheit for public forecast. Weather courtesy of forecast.io.

Current aviation weather report (METAR) for Caldwell Industrial Airport

Retrieved 2020/05/30 11:56 UTC (45 minutes ago):

KEUL 301156Z AUTO 01004KT 10SM CLR 17/14 A2974 RMK AO2 LTG DSNT N AND NW SLP044 T01720139 10239 20172 56009

Aviation forecast (TAF) for Caldwell Industrial Airport

Retrieved 2020/05/30 12:42 UTC (0 seconds ago):

TAF KEUL 301138Z 3012/3112 VRB05KT P6SM BKN150 FM301600 14014G26KT P6SM SCT200 FM302000 16018G30KT P6SM BKN150 FM310100 26018G30KT P6SM VCSH BKN120 FM310900 32011G19KT P6SM BKN120